sensor_id;sensor_type;location;lat;lon;timestamp;P1;durP1;ratioP1;P2;durP2;ratioP2
66886;SDS011;67239;51.680;5.976;2024-03-02T00:01:37;4.10;;;1.80;;
66886;SDS011;67239;51.680;5.976;2024-03-02T00:04:04;3.55;;;1.80;;
66886;SDS011;67239;51.680;5.976;2024-03-02T00:06:33;4.55;;;1.63;;
66886;SDS011;67239;51.680;5.976;2024-03-02T00:09:01;3.25;;;1.60;;
66886;SDS011;67239;51.680;5.976;2024-03-02T00:11:29;2.78;;;1.63;;
66886;SDS011;67239;51.680;5.976;2024-03-02T00:13:57;2.65;;;1.60;;
66886;SDS011;67239;51.680;5.976;2024-03-02T00:16:24;2.38;;;1.50;;
66886;SDS011;67239;51.680;5.976;2024-03-02T00:19:01;3.55;;;1.70;;
66886;SDS011;67239;51.680;5.976;2024-03-02T00:21:33;5.18;;;1.83;;
66886;SDS011;67239;51.680;5.976;2024-03-02T00:24:01;4.45;;;1.50;;
66886;SDS011;67239;51.680;5.976;2024-03-02T00:27:03;3.33;;;1.48;;
66886;SDS011;67239;51.680;5.976;2024-03-02T00:29:34;4.30;;;1.80;;
66886;SDS011;67239;51.680;5.976;2024-03-02T00:32:01;2.83;;;1.80;;
66886;SDS011;67239;51.680;5.976;2024-03-02T00:34:29;3.15;;;1.73;;
66886;SDS011;67239;51.680;5.976;2024-03-02T00:36:57;5.45;;;1.65;;
66886;SDS011;67239;51.680;5.976;2024-03-02T00:39:26;3.38;;;1.60;;
66886;SDS011;67239;51.680;5.976;2024-03-02T00:41:53;2.88;;;1.80;;
66886;SDS011;67239;51.680;5.976;2024-03-02T00:44:20;4.45;;;1.55;;
66886;SDS011;67239;51.680;5.976;2024-03-02T00:46:53;2.50;;;1.42;;
66886;SDS011;67239;51.680;5.976;2024-03-02T00:51:51;2.20;;;1.38;;
66886;SDS011;67239;51.680;5.976;2024-03-02T00:56:51;3.58;;;1.50;;
66886;SDS011;67239;51.680;5.976;2024-03-02T00:59:22;6.60;;;1.80;;
66886;SDS011;67239;51.680;5.976;2024-03-02T01:01:50;3.22;;;1.48;;
66886;SDS011;67239;51.680;5.976;2024-03-02T01:04:17;2.78;;;1.50;;
66886;SDS011;67239;51.680;5.976;2024-03-02T01:06:44;3.67;;;1.55;;
66886;SDS011;67239;51.680;5.976;2024-03-02T01:09:12;4.40;;;1.30;;
66886;SDS011;67239;51.680;5.976;2024-03-02T01:11:39;2.85;;;1.30;;
66886;SDS011;67239;51.680;5.976;2024-03-02T01:14:06;4.68;;;1.60;;
66886;SDS011;67239;51.680;5.976;2024-03-02T01:16:33;2.90;;;1.33;;
66886;SDS011;67239;51.680;5.976;2024-03-02T01:19:01;2.97;;;1.30;;
66886;SDS011;67239;51.680;5.976;2024-03-02T01:21:28;5.07;;;1.58;;
66886;SDS011;67239;51.680;5.976;2024-03-02T01:23:55;2.10;;;1.15;;
66886;SDS011;67239;51.680;5.976;2024-03-02T01:26:22;5.28;;;1.05;;
66886;SDS011;67239;51.680;5.976;2024-03-02T01:28:49;0.88;;;0.63;;
66886;SDS011;67239;51.680;5.976;2024-03-02T01:31:16;4.68;;;1.05;;
66886;SDS011;67239;51.680;5.976;2024-03-02T01:33:43;4.30;;;0.80;;
66886;SDS011;67239;51.680;5.976;2024-03-02T01:36:10;1.13;;;0.50;;
66886;SDS011;67239;51.680;5.976;2024-03-02T01:38:37;1.08;;;0.60;;
66886;SDS011;67239;51.680;5.976;2024-03-02T01:41:04;1.48;;;0.50;;
66886;SDS011;67239;51.680;5.976;2024-03-02T01:43:31;1.33;;;0.75;;
66886;SDS011;67239;51.680;5.976;2024-03-02T01:45:58;1.95;;;0.70;;
66886;SDS011;67239;51.680;5.976;2024-03-02T01:48:26;1.75;;;0.63;;
66886;SDS011;67239;51.680;5.976;2024-03-02T01:50:53;0.95;;;0.70;;
66886;SDS011;67239;51.680;5.976;2024-03-02T01:53:20;0.82;;;0.50;;
66886;SDS011;67239;51.680;5.976;2024-03-02T01:55:47;0.68;;;0.50;;
66886;SDS011;67239;51.680;5.976;2024-03-02T01:58:14;1.02;;;0.55;;
66886;SDS011;67239;51.680;5.976;2024-03-02T02:00:41;2.65;;;0.50;;
66886;SDS011;67239;51.680;5.976;2024-03-02T02:03:08;1.63;;;0.57;;
66886;SDS011;67239;51.680;5.976;2024-03-02T02:05:35;0.43;;;0.28;;
66886;SDS011;67239;51.680;5.976;2024-03-02T02:08:03;0.65;;;0.50;;
66886;SDS011;67239;51.680;5.976;2024-03-02T02:10:30;3.50;;;0.50;;
66886;SDS011;67239;51.680;5.976;2024-03-02T02:12:58;0.70;;;0.60;;
66886;SDS011;67239;51.680;5.976;2024-03-02T02:15:25;0.52;;;0.32;;
66886;SDS011;67239;51.680;5.976;2024-03-02T02:17:57;1.27;;;0.50;;
66886;SDS011;67239;51.680;5.976;2024-03-02T02:20:26;0.35;;;0.35;;
66886;SDS011;67239;51.680;5.976;2024-03-02T02:23:00;0.85;;;0.47;;
66886;SDS011;67239;51.680;5.976;2024-03-02T02:25:36;1.25;;;0.60;;
66886;SDS011;67239;51.680;5.976;2024-03-02T02:28:03;0.98;;;0.50;;
66886;SDS011;67239;51.680;5.976;2024-03-02T02:30:31;1.67;;;0.60;;
66886;SDS011;67239;51.680;5.976;2024-03-02T02:32:59;0.35;;;0.35;;
66886;SDS011;67239;51.680;5.976;2024-03-02T02:35:26;0.38;;;0.38;;
66886;SDS011;67239;51.680;5.976;2024-03-02T02:37:54;0.95;;;0.50;;
66886;SDS011;67239;51.680;5.976;2024-03-02T02:40:23;0.73;;;0.60;;
66886;SDS011;67239;51.680;5.976;2024-03-02T02:42:50;0.63;;;0.50;;
66886;SDS011;67239;51.680;5.976;2024-03-02T02:45:21;0.52;;;0.50;;
66886;SDS011;67239;51.680;5.976;2024-03-02T02:47:48;0.98;;;0.55;;
66886;SDS011;67239;51.680;5.976;2024-03-02T02:50:16;1.48;;;0.55;;
66886;SDS011;67239;51.680;5.976;2024-03-02T02:52:44;1.30;;;0.68;;
66886;SDS011;67239;51.680;5.976;2024-03-02T02:55:11;0.73;;;0.52;;
66886;SDS011;67239;51.680;5.976;2024-03-02T02:57:40;1.65;;;0.82;;
66886;SDS011;67239;51.680;5.976;2024-03-02T03:00:11;0.68;;;0.57;;
66886;SDS011;67239;51.680;5.976;2024-03-02T03:02:43;1.58;;;0.63;;
66886;SDS011;67239;51.680;5.976;2024-03-02T03:05:14;2.63;;;0.93;;
66886;SDS011;67239;51.680;5.976;2024-03-02T03:07:42;1.17;;;0.60;;
66886;SDS011;67239;51.680;5.976;2024-03-02T03:10:11;1.63;;;0.90;;
66886;SDS011;67239;51.680;5.976;2024-03-02T03:12:38;2.17;;;0.63;;
66886;SDS011;67239;51.680;5.976;2024-03-02T03:15:07;0.73;;;0.60;;
66886;SDS011;67239;51.680;5.976;2024-03-02T03:17:39;0.70;;;0.50;;
66886;SDS011;67239;51.680;5.976;2024-03-02T03:20:06;1.48;;;0.63;;
66886;SDS011;67239;51.680;5.976;2024-03-02T03:22:37;0.45;;;0.40;;
66886;SDS011;67239;51.680;5.976;2024-03-02T03:25:05;0.55;;;0.30;;
66886;SDS011;67239;51.680;5.976;2024-03-02T03:27:35;0.43;;;0.43;;
66886;SDS011;67239;51.680;5.976;2024-03-02T03:30:02;0.60;;;0.50;;
66886;SDS011;67239;51.680;5.976;2024-03-02T03:32:30;0.75;;;0.52;;
66886;SDS011;67239;51.680;5.976;2024-03-02T03:34:57;1.48;;;0.68;;
66886;SDS011;67239;51.680;5.976;2024-03-02T03:37:24;2.63;;;0.80;;
66886;SDS011;67239;51.680;5.976;2024-03-02T03:39:53;0.52;;;0.52;;
66886;SDS011;67239;51.680;5.976;2024-03-02T03:42:20;1.15;;;0.57;;
66886;SDS011;67239;51.680;5.976;2024-03-02T03:44:47;1.98;;;0.88;;
66886;SDS011;67239;51.680;5.976;2024-03-02T03:47:14;1.63;;;0.90;;
66886;SDS011;67239;51.680;5.976;2024-03-02T03:49:42;1.30;;;0.80;;
66886;SDS011;67239;51.680;5.976;2024-03-02T03:52:09;2.97;;;0.95;;
66886;SDS011;67239;51.680;5.976;2024-03-02T03:54:36;1.05;;;0.80;;
66886;SDS011;67239;51.680;5.976;2024-03-02T03:57:05;2.00;;;0.88;;
66886;SDS011;67239;51.680;5.976;2024-03-02T03:59:32;1.95;;;0.88;;
66886;SDS011;67239;51.680;5.976;2024-03-02T04:01:59;1.95;;;0.60;;
66886;SDS011;67239;51.680;5.976;2024-03-02T04:04:26;0.98;;;0.70;;
66886;SDS011;67239;51.680;5.976;2024-03-02T04:06:53;0.68;;;0.60;;
66886;SDS011;67239;51.680;5.976;2024-03-02T04:09:21;1.38;;;0.57;;
66886;SDS011;67239;51.680;5.976;2024-03-02T04:11:48;2.47;;;0.70;;
66886;SDS011;67239;51.680;5.976;2024-03-02T04:14:15;1.13;;;0.70;;
66886;SDS011;67239;51.680;5.976;2024-03-02T04:16:42;1.25;;;0.70;;
66886;SDS011;67239;51.680;5.976;2024-03-02T04:19:09;0.70;;;0.50;;
66886;SDS011;67239;51.680;5.976;2024-03-02T04:21:36;0.50;;;0.50;;
66886;SDS011;67239;51.680;5.976;2024-03-02T04:24:04;0.73;;;0.70;;
66886;SDS011;67239;51.680;5.976;2024-03-02T04:26:31;1.10;;;0.70;;
66886;SDS011;67239;51.680;5.976;2024-03-02T04:28:58;1.60;;;0.60;;
66886;SDS011;67239;51.680;5.976;2024-03-02T04:31:25;0.88;;;0.60;;
66886;SDS011;67239;51.680;5.976;2024-03-02T04:33:52;1.83;;;0.85;;
66886;SDS011;67239;51.680;5.976;2024-03-02T04:36:20;0.50;;;0.30;;
66886;SDS011;67239;51.680;5.976;2024-03-02T04:38:48;1.77;;;0.85;;
66886;SDS011;67239;51.680;5.976;2024-03-02T04:41:15;1.60;;;0.63;;
66886;SDS011;67239;51.680;5.976;2024-03-02T04:43:42;0.55;;;0.50;;
66886;SDS011;67239;51.680;5.976;2024-03-02T04:46:09;1.13;;;0.70;;
66886;SDS011;67239;51.680;5.976;2024-03-02T04:48:37;1.42;;;0.70;;
66886;SDS011;67239;51.680;5.976;2024-03-02T04:51:05;0.90;;;0.57;;
66886;SDS011;67239;51.680;5.976;2024-03-02T04:53:32;0.85;;;0.43;;
66886;SDS011;67239;51.680;5.976;2024-03-02T04:55:59;2.17;;;0.60;;
66886;SDS011;67239;51.680;5.976;2024-03-02T04:58:44;0.52;;;0.50;;
66886;SDS011;67239;51.680;5.976;2024-03-02T05:01:11;0.85;;;0.60;;
66886;SDS011;67239;51.680;5.976;2024-03-02T05:03:39;1.13;;;0.60;;
66886;SDS011;67239;51.680;5.976;2024-03-02T05:06:06;1.05;;;0.60;;
66886;SDS011;67239;51.680;5.976;2024-03-02T05:08:33;1.33;;;0.77;;
66886;SDS011;67239;51.680;5.976;2024-03-02T05:11:00;1.48;;;0.60;;
66886;SDS011;67239;51.680;5.976;2024-03-02T05:13:47;0.93;;;0.57;;
66886;SDS011;67239;51.680;5.976;2024-03-02T05:16:14;2.10;;;0.82;;
66886;SDS011;67239;51.680;5.976;2024-03-02T05:18:41;2.65;;;0.80;;
66886;SDS011;67239;51.680;5.976;2024-03-02T05:21:08;1.77;;;0.60;;
66886;SDS011;67239;51.680;5.976;2024-03-02T05:23:36;0.70;;;0.40;;
66886;SDS011;67239;51.680;5.976;2024-03-02T05:26:03;1.77;;;0.75;;
66886;SDS011;67239;51.680;5.976;2024-03-02T05:28:30;0.43;;;0.43;;
66886;SDS011;67239;51.680;5.976;2024-03-02T05:30:57;0.68;;;0.40;;
66886;SDS011;67239;51.680;5.976;2024-03-02T05:33:25;1.27;;;0.60;;
66886;SDS011;67239;51.680;5.976;2024-03-02T05:35:52;0.98;;;0.47;;
66886;SDS011;67239;51.680;5.976;2024-03-02T05:38:20;1.17;;;0.63;;
66886;SDS011;67239;51.680;5.976;2024-03-02T05:40:48;1.42;;;0.57;;
66886;SDS011;67239;51.680;5.976;2024-03-02T05:43:15;1.17;;;0.45;;
66886;SDS011;67239;51.680;5.976;2024-03-02T05:45:42;1.40;;;0.60;;
66886;SDS011;67239;51.680;5.976;2024-03-02T05:48:09;2.92;;;0.77;;
66886;SDS011;67239;51.680;5.976;2024-03-02T05:50:37;1.52;;;0.75;;
66886;SDS011;67239;51.680;5.976;2024-03-02T05:53:04;2.15;;;0.60;;
66886;SDS011;67239;51.680;5.976;2024-03-02T05:55:31;2.45;;;0.80;;
66886;SDS011;67239;51.680;5.976;2024-03-02T05:57:58;2.28;;;0.70;;
66886;SDS011;67239;51.680;5.976;2024-03-02T06:00:44;3.65;;;0.70;;
66886;SDS011;67239;51.680;5.976;2024-03-02T06:03:11;3.97;;;1.02;;
66886;SDS011;67239;51.680;5.976;2024-03-02T06:05:38;1.05;;;0.60;;
66886;SDS011;67239;51.680;5.976;2024-03-02T06:08:05;2.20;;;0.82;;
66886;SDS011;67239;51.680;5.976;2024-03-02T06:10:34;1.20;;;0.55;;
66886;SDS011;67239;51.680;5.976;2024-03-02T06:13:03;2.97;;;0.70;;
66886;SDS011;67239;51.680;5.976;2024-03-02T06:15:30;1.75;;;0.80;;
66886;SDS011;67239;51.680;5.976;2024-03-02T06:18:02;0.75;;;0.60;;
66886;SDS011;67239;51.680;5.976;2024-03-02T06:20:30;1.27;;;0.50;;
66886;SDS011;67239;51.680;5.976;2024-03-02T06:23:03;1.45;;;0.77;;
66886;SDS011;67239;51.680;5.976;2024-03-02T06:25:30;1.40;;;0.70;;
66886;SDS011;67239;51.680;5.976;2024-03-02T06:27:58;1.02;;;0.80;;
66886;SDS011;67239;51.680;5.976;2024-03-02T06:30:25;3.20;;;1.00;;
66886;SDS011;67239;51.680;5.976;2024-03-02T06:32:52;0.95;;;0.70;;
66886;SDS011;67239;51.680;5.976;2024-03-02T06:35:22;2.05;;;0.80;;
66886;SDS011;67239;51.680;5.976;2024-03-02T06:37:49;1.48;;;1.10;;
66886;SDS011;67239;51.680;5.976;2024-03-02T06:40:16;3.58;;;1.02;;
66886;SDS011;67239;51.680;5.976;2024-03-02T06:42:46;1.40;;;0.85;;
66886;SDS011;67239;51.680;5.976;2024-03-02T06:45:13;1.30;;;0.73;;
66886;SDS011;67239;51.680;5.976;2024-03-02T06:47:40;0.85;;;0.82;;
66886;SDS011;67239;51.680;5.976;2024-03-02T06:50:08;2.95;;;0.82;;
66886;SDS011;67239;51.680;5.976;2024-03-02T06:52:36;0.65;;;0.60;;
66886;SDS011;67239;51.680;5.976;2024-03-02T06:55:03;4.70;;;1.73;;
66886;SDS011;67239;51.680;5.976;2024-03-02T06:57:31;3.47;;;1.08;;
66886;SDS011;67239;51.680;5.976;2024-03-02T06:59:58;4.47;;;1.05;;
66886;SDS011;67239;51.680;5.976;2024-03-02T07:02:25;0.82;;;0.68;;
66886;SDS011;67239;51.680;5.976;2024-03-02T07:04:53;2.72;;;0.98;;
66886;SDS011;67239;51.680;5.976;2024-03-02T07:07:21;1.58;;;0.85;;
66886;SDS011;67239;51.680;5.976;2024-03-02T07:09:48;1.40;;;0.70;;
66886;SDS011;67239;51.680;5.976;2024-03-02T07:12:15;2.15;;;0.73;;
66886;SDS011;67239;51.680;5.976;2024-03-02T07:14:42;2.13;;;1.20;;
66886;SDS011;67239;51.680;5.976;2024-03-02T07:17:30;2.63;;;1.23;;
66886;SDS011;67239;51.680;5.976;2024-03-02T07:20:02;5.32;;;1.20;;
66886;SDS011;67239;51.680;5.976;2024-03-02T07:22:30;2.33;;;1.17;;
66886;SDS011;67239;51.680;5.976;2024-03-02T07:24:57;2.08;;;1.00;;
66886;SDS011;67239;51.680;5.976;2024-03-02T07:27:27;2.10;;;1.13;;
66886;SDS011;67239;51.680;5.976;2024-03-02T07:29:54;3.20;;;0.90;;
66886;SDS011;67239;51.680;5.976;2024-03-02T07:32:21;1.98;;;1.10;;
66886;SDS011;67239;51.680;5.976;2024-03-02T07:34:48;3.42;;;1.10;;
66886;SDS011;67239;51.680;5.976;2024-03-02T07:37:16;3.03;;;1.20;;
66886;SDS011;67239;51.680;5.976;2024-03-02T07:39:44;3.65;;;1.35;;
66886;SDS011;67239;51.680;5.976;2024-03-02T07:42:12;3.20;;;1.35;;
66886;SDS011;67239;51.680;5.976;2024-03-02T07:44:39;2.17;;;1.50;;
66886;SDS011;67239;51.680;5.976;2024-03-02T07:47:07;2.35;;;1.20;;
66886;SDS011;67239;51.680;5.976;2024-03-02T07:49:35;3.00;;;1.30;;
66886;SDS011;67239;51.680;5.976;2024-03-02T07:52:02;3.03;;;1.30;;
66886;SDS011;67239;51.680;5.976;2024-03-02T07:54:29;3.33;;;1.30;;
66886;SDS011;67239;51.680;5.976;2024-03-02T07:56:57;3.10;;;1.27;;
66886;SDS011;67239;51.680;5.976;2024-03-02T07:59:25;3.72;;;1.10;;
66886;SDS011;67239;51.680;5.976;2024-03-02T08:01:52;2.17;;;1.00;;
66886;SDS011;67239;51.680;5.976;2024-03-02T08:04:21;2.60;;;1.10;;
66886;SDS011;67239;51.680;5.976;2024-03-02T08:06:49;1.58;;;1.00;;
66886;SDS011;67239;51.680;5.976;2024-03-02T08:09:17;2.55;;;1.20;;
66886;SDS011;67239;51.680;5.976;2024-03-02T08:11:44;2.30;;;1.20;;
66886;SDS011;67239;51.680;5.976;2024-03-02T08:14:11;1.98;;;0.90;;
66886;SDS011;67239;51.680;5.976;2024-03-02T08:16:38;2.53;;;1.15;;
66886;SDS011;67239;51.680;5.976;2024-03-02T08:19:05;1.58;;;0.80;;
66886;SDS011;67239;51.680;5.976;2024-03-02T08:21:32;2.47;;;0.90;;
66886;SDS011;67239;51.680;5.976;2024-03-02T08:24:02;2.63;;;0.95;;
66886;SDS011;67239;51.680;5.976;2024-03-02T08:26:29;3.90;;;1.17;;
66886;SDS011;67239;51.680;5.976;2024-03-02T08:28:58;2.15;;;0.85;;
66886;SDS011;67239;51.680;5.976;2024-03-02T08:31:28;2.40;;;1.10;;
66886;SDS011;67239;51.680;5.976;2024-03-02T08:33:55;3.65;;;1.25;;
66886;SDS011;67239;51.680;5.976;2024-03-02T08:36:23;2.75;;;1.08;;
66886;SDS011;67239;51.680;5.976;2024-03-02T08:38:50;3.95;;;0.90;;
66886;SDS011;67239;51.680;5.976;2024-03-02T08:41:18;2.95;;;0.82;;
66886;SDS011;67239;51.680;5.976;2024-03-02T08:43:45;3.15;;;1.13;;
66886;SDS011;67239;51.680;5.976;2024-03-02T08:46:12;2.88;;;1.48;;
66886;SDS011;67239;51.680;5.976;2024-03-02T08:48:40;4.10;;;1.20;;
66886;SDS011;67239;51.680;5.976;2024-03-02T08:51:07;3.15;;;1.10;;
66886;SDS011;67239;51.680;5.976;2024-03-02T08:53:36;3.33;;;0.90;;
66886;SDS011;67239;51.680;5.976;2024-03-02T08:56:04;4.95;;;1.10;;
66886;SDS011;67239;51.680;5.976;2024-03-02T08:58:32;2.10;;;1.00;;
66886;SDS011;67239;51.680;5.976;2024-03-02T09:00:59;4.63;;;1.05;;
66886;SDS011;67239;51.680;5.976;2024-03-02T09:03:26;2.05;;;1.10;;
66886;SDS011;67239;51.680;5.976;2024-03-02T09:05:54;2.83;;;1.08;;
66886;SDS011;67239;51.680;5.976;2024-03-02T09:08:21;3.22;;;0.82;;
66886;SDS011;67239;51.680;5.976;2024-03-02T09:10:48;2.45;;;1.08;;
66886;SDS011;67239;51.680;5.976;2024-03-02T09:13:15;1.98;;;1.05;;
66886;SDS011;67239;51.680;5.976;2024-03-02T09:15:42;2.88;;;1.35;;
66886;SDS011;67239;51.680;5.976;2024-03-02T09:18:11;3.05;;;1.30;;
66886;SDS011;67239;51.680;5.976;2024-03-02T09:20:40;6.25;;;1.30;;
66886;SDS011;67239;51.680;5.976;2024-03-02T09:23:08;5.25;;;2.05;;
66886;SDS011;67239;51.680;5.976;2024-03-02T09:25:35;3.45;;;1.80;;
66886;SDS011;67239;51.680;5.976;2024-03-02T09:28:03;3.78;;;1.40;;
66886;SDS011;67239;51.680;5.976;2024-03-02T09:30:30;7.00;;;2.13;;
66886;SDS011;67239;51.680;5.976;2024-03-02T09:32:58;4.50;;;1.98;;
66886;SDS011;67239;51.680;5.976;2024-03-02T09:35:28;4.60;;;1.60;;
66886;SDS011;67239;51.680;5.976;2024-03-02T09:37:55;3.67;;;1.60;;
66886;SDS011;67239;51.680;5.976;2024-03-02T09:40:22;4.82;;;1.50;;
66886;SDS011;67239;51.680;5.976;2024-03-02T09:42:50;2.70;;;1.02;;
66886;SDS011;67239;51.680;5.976;2024-03-02T09:45:21;5.32;;;1.58;;
66886;SDS011;67239;51.680;5.976;2024-03-02T09:47:51;3.35;;;1.88;;
66886;SDS011;67239;51.680;5.976;2024-03-02T09:50:18;3.42;;;1.60;;
66886;SDS011;67239;51.680;5.976;2024-03-02T09:52:48;4.80;;;2.30;;
66886;SDS011;67239;51.680;5.976;2024-03-02T09:55:17;3.08;;;1.50;;
66886;SDS011;67239;51.680;5.976;2024-03-02T09:57:46;1.88;;;1.20;;
66886;SDS011;67239;51.680;5.976;2024-03-02T10:00:15;5.03;;;1.80;;
66886;SDS011;67239;51.680;5.976;2024-03-02T10:02:42;3.25;;;1.50;;
66886;SDS011;67239;51.680;5.976;2024-03-02T10:05:10;3.15;;;1.45;;
66886;SDS011;67239;51.680;5.976;2024-03-02T10:07:38;2.60;;;1.30;;
66886;SDS011;67239;51.680;5.976;2024-03-02T10:10:15;2.83;;;1.30;;
66886;SDS011;67239;51.680;5.976;2024-03-02T10:12:43;4.85;;;1.60;;
66886;SDS011;67239;51.680;5.976;2024-03-02T10:15:10;2.22;;;1.10;;
66886;SDS011;67239;51.680;5.976;2024-03-02T10:17:37;4.18;;;1.38;;
66886;SDS011;67239;51.680;5.976;2024-03-02T10:20:20;3.38;;;1.50;;
66886;SDS011;67239;51.680;5.976;2024-03-02T10:22:52;5.10;;;2.60;;
66886;SDS011;67239;51.680;5.976;2024-03-02T10:25:32;2.30;;;1.20;;
66886;SDS011;67239;51.680;5.976;2024-03-02T10:28:03;3.05;;;1.02;;
66886;SDS011;67239;51.680;5.976;2024-03-02T10:30:35;3.53;;;1.10;;
66886;SDS011;67239;51.680;5.976;2024-03-02T10:33:03;2.72;;;0.90;;
66886;SDS011;67239;51.680;5.976;2024-03-02T10:35:33;4.45;;;1.40;;
66886;SDS011;67239;51.680;5.976;2024-03-02T10:38:06;3.92;;;1.60;;
66886;SDS011;67239;51.680;5.976;2024-03-02T10:40:33;5.20;;;2.20;;
66886;SDS011;67239;51.680;5.976;2024-03-02T10:43:01;3.95;;;2.10;;
66886;SDS011;67239;51.680;5.976;2024-03-02T10:45:31;5.95;;;2.05;;
66886;SDS011;67239;51.680;5.976;2024-03-02T10:47:59;3.47;;;1.83;;
66886;SDS011;67239;51.680;5.976;2024-03-02T10:50:29;6.13;;;1.75;;
66886;SDS011;67239;51.680;5.976;2024-03-02T10:52:57;3.15;;;1.00;;
66886;SDS011;67239;51.680;5.976;2024-03-02T10:55:24;4.65;;;1.90;;
66886;SDS011;67239;51.680;5.976;2024-03-02T10:57:52;4.07;;;1.48;;
66886;SDS011;67239;51.680;5.976;2024-03-02T11:00:24;3.83;;;1.58;;
66886;SDS011;67239;51.680;5.976;2024-03-02T11:02:57;3.72;;;1.80;;
66886;SDS011;67239;51.680;5.976;2024-03-02T11:05:40;4.40;;;1.80;;
66886;SDS011;67239;51.680;5.976;2024-03-02T11:08:12;3.50;;;2.10;;
66886;SDS011;67239;51.680;5.976;2024-03-02T11:11:01;2.97;;;0.98;;
66886;SDS011;67239;51.680;5.976;2024-03-02T11:13:47;3.42;;;1.40;;
66886;SDS011;67239;51.680;5.976;2024-03-02T11:16:50;3.28;;;1.30;;
66886;SDS011;67239;51.680;5.976;2024-03-02T11:19:12;4.03;;;1.60;;
66886;SDS011;67239;51.680;5.976;2024-03-02T11:21:43;3.15;;;0.90;;
66886;SDS011;67239;51.680;5.976;2024-03-02T11:26:51;6.47;;;1.63;;
66886;SDS011;67239;51.680;5.976;2024-03-02T11:32:05;4.82;;;2.10;;
66886;SDS011;67239;51.680;5.976;2024-03-02T11:34:42;3.80;;;1.02;;
66886;SDS011;67239;51.680;5.976;2024-03-02T11:37:13;3.60;;;0.98;;
66886;SDS011;67239;51.680;5.976;2024-03-02T11:39:41;3.38;;;1.42;;
66886;SDS011;67239;51.680;5.976;2024-03-02T11:42:12;2.75;;;1.10;;
66886;SDS011;67239;51.680;5.976;2024-03-02T11:44:42;4.03;;;1.58;;
66886;SDS011;67239;51.680;5.976;2024-03-02T11:47:13;3.63;;;1.33;;
66886;SDS011;67239;51.680;5.976;2024-03-02T11:49:44;3.40;;;1.00;;
66886;SDS011;67239;51.680;5.976;2024-03-02T11:52:15;3.92;;;1.20;;
66886;SDS011;67239;51.680;5.976;2024-03-02T11:54:45;3.17;;;1.13;;
66886;SDS011;67239;51.680;5.976;2024-03-02T11:57:22;4.90;;;1.10;;
66886;SDS011;67239;51.680;5.976;2024-03-02T11:59:50;2.15;;;1.20;;
66886;SDS011;67239;51.680;5.976;2024-03-02T12:02:21;3.97;;;1.35;;
66886;SDS011;67239;51.680;5.976;2024-03-02T12:04:49;2.63;;;1.20;;
66886;SDS011;67239;51.680;5.976;2024-03-02T12:07:20;3.92;;;1.20;;
66886;SDS011;67239;51.680;5.976;2024-03-02T12:10:00;5.07;;;1.30;;
66886;SDS011;67239;51.680;5.976;2024-03-02T12:12:28;5.82;;;1.67;;
66886;SDS011;67239;51.680;5.976;2024-03-02T12:14:56;3.40;;;1.52;;
66886;SDS011;67239;51.680;5.976;2024-03-02T12:17:23;3.05;;;1.35;;
66886;SDS011;67239;51.680;5.976;2024-03-02T12:19:50;3.97;;;1.50;;
66886;SDS011;67239;51.680;5.976;2024-03-02T12:22:17;5.05;;;1.33;;
66886;SDS011;67239;51.680;5.976;2024-03-02T12:24:44;2.58;;;1.60;;
66886;SDS011;67239;51.680;5.976;2024-03-02T12:27:13;3.70;;;1.33;;
66886;SDS011;67239;51.680;5.976;2024-03-02T12:29:42;3.33;;;1.08;;
66886;SDS011;67239;51.680;5.976;2024-03-02T12:32:09;3.03;;;1.65;;
66886;SDS011;67239;51.680;5.976;2024-03-02T12:34:37;3.92;;;1.00;;
66886;SDS011;67239;51.680;5.976;2024-03-02T12:37:11;2.50;;;0.80;;
66886;SDS011;67239;51.680;5.976;2024-03-02T12:39:56;4.35;;;1.10;;
66886;SDS011;67239;51.680;5.976;2024-03-02T12:42:26;9.35;;;1.52;;
66886;SDS011;67239;51.680;5.976;2024-03-02T12:44:53;5.78;;;1.35;;
66886;SDS011;67239;51.680;5.976;2024-03-02T12:47:21;3.30;;;1.10;;
66886;SDS011;67239;51.680;5.976;2024-03-02T12:49:49;4.85;;;1.25;;
66886;SDS011;67239;51.680;5.976;2024-03-02T12:52:19;2.30;;;1.05;;
66886;SDS011;67239;51.680;5.976;2024-03-02T12:54:48;1.88;;;1.15;;
66886;SDS011;67239;51.680;5.976;2024-03-02T12:57:17;5.28;;;1.48;;
66886;SDS011;67239;51.680;5.976;2024-03-02T12:59:45;3.15;;;1.13;;
66886;SDS011;67239;51.680;5.976;2024-03-02T13:02:16;2.67;;;1.00;;
66886;SDS011;67239;51.680;5.976;2024-03-02T13:04:52;5.47;;;1.20;;
66886;SDS011;67239;51.680;5.976;2024-03-02T13:07:26;2.55;;;1.23;;
66886;SDS011;67239;51.680;5.976;2024-03-02T13:09:54;3.90;;;0.95;;
66886;SDS011;67239;51.680;5.976;2024-03-02T13:12:23;2.10;;;1.00;;
66886;SDS011;67239;51.680;5.976;2024-03-02T13:14:51;3.40;;;1.10;;
66886;SDS011;67239;51.680;5.976;2024-03-02T13:17:19;3.42;;;1.20;;
66886;SDS011;67239;51.680;5.976;2024-03-02T13:19:51;2.13;;;0.95;;
66886;SDS011;67239;51.680;5.976;2024-03-02T13:22:20;3.53;;;1.15;;
66886;SDS011;67239;51.680;5.976;2024-03-02T13:24:48;2.75;;;1.20;;
66886;SDS011;67239;51.680;5.976;2024-03-02T13:27:16;4.13;;;1.20;;
66886;SDS011;67239;51.680;5.976;2024-03-02T13:29:49;4.20;;;1.10;;
66886;SDS011;67239;51.680;5.976;2024-03-02T13:32:16;10.23;;;1.50;;
66886;SDS011;67239;51.680;5.976;2024-03-02T13:34:43;4.78;;;0.88;;
66886;SDS011;67239;51.680;5.976;2024-03-02T13:37:10;11.75;;;1.80;;
66886;SDS011;67239;51.680;5.976;2024-03-02T13:39:37;3.95;;;1.25;;
66886;SDS011;67239;51.680;5.976;2024-03-02T13:42:09;6.25;;;1.67;;
66886;SDS011;67239;51.680;5.976;2024-03-02T13:44:39;3.33;;;1.35;;
66886;SDS011;67239;51.680;5.976;2024-03-02T13:47:07;3.40;;;1.00;;
66886;SDS011;67239;51.680;5.976;2024-03-02T13:49:34;5.88;;;1.20;;
66886;SDS011;67239;51.680;5.976;2024-03-02T13:52:06;5.32;;;1.70;;
66886;SDS011;67239;51.680;5.976;2024-03-02T13:54:44;4.93;;;1.13;;
66886;SDS011;67239;51.680;5.976;2024-03-02T13:57:14;5.38;;;1.30;;
66886;SDS011;67239;51.680;5.976;2024-03-02T13:59:42;4.68;;;1.10;;
66886;SDS011;67239;51.680;5.976;2024-03-02T14:02:10;3.92;;;1.33;;
66886;SDS011;67239;51.680;5.976;2024-03-02T14:04:39;3.63;;;1.20;;
66886;SDS011;67239;51.680;5.976;2024-03-02T14:07:06;3.50;;;1.13;;
66886;SDS011;67239;51.680;5.976;2024-03-02T14:09:38;3.25;;;1.15;;
66886;SDS011;67239;51.680;5.976;2024-03-02T14:12:05;4.07;;;1.30;;
66886;SDS011;67239;51.680;5.976;2024-03-02T14:14:34;4.93;;;1.27;;
66886;SDS011;67239;51.680;5.976;2024-03-02T14:17:01;6.30;;;1.30;;
66886;SDS011;67239;51.680;5.976;2024-03-02T14:19:33;4.60;;;1.27;;
66886;SDS011;67239;51.680;5.976;2024-03-02T14:22:00;3.15;;;1.17;;
66886;SDS011;67239;51.680;5.976;2024-03-02T14:24:27;5.97;;;1.73;;
66886;SDS011;67239;51.680;5.976;2024-03-02T14:26:59;2.75;;;0.90;;
66886;SDS011;67239;51.680;5.976;2024-03-02T14:29:42;4.07;;;1.27;;
66886;SDS011;67239;51.680;5.976;2024-03-02T14:32:10;4.90;;;1.30;;
66886;SDS011;67239;51.680;5.976;2024-03-02T14:34:37;3.05;;;1.00;;
66886;SDS011;67239;51.680;5.976;2024-03-02T14:37:06;3.88;;;1.35;;
66886;SDS011;67239;51.680;5.976;2024-03-02T14:39:33;3.50;;;1.38;;
66886;SDS011;67239;51.680;5.976;2024-03-02T14:42:02;2.00;;;0.90;;
66886;SDS011;67239;51.680;5.976;2024-03-02T14:44:29;4.15;;;1.20;;
66886;SDS011;67239;51.680;5.976;2024-03-02T14:46:56;3.67;;;1.50;;
66886;SDS011;67239;51.680;5.976;2024-03-02T14:49:25;5.72;;;1.30;;
66886;SDS011;67239;51.680;5.976;2024-03-02T14:51:53;4.03;;;1.17;;
66886;SDS011;67239;51.680;5.976;2024-03-02T14:54:21;3.40;;;1.20;;
66886;SDS011;67239;51.680;5.976;2024-03-02T14:56:48;4.65;;;1.40;;
66886;SDS011;67239;51.680;5.976;2024-03-02T14:59:16;3.17;;;1.40;;
66886;SDS011;67239;51.680;5.976;2024-03-02T15:01:43;3.33;;;1.20;;
66886;SDS011;67239;51.680;5.976;2024-03-02T15:04:11;3.05;;;1.27;;
66886;SDS011;67239;51.680;5.976;2024-03-02T15:06:38;5.13;;;1.50;;
66886;SDS011;67239;51.680;5.976;2024-03-02T15:09:06;5.15;;;1.50;;